Time;durP1;ratioP1;P1;durP2;ratioP2;P2;SDS_P1;SDS_P2;PMS_P1;PMS_P2;Temp;Humidity;BMP_temperature;BMP_pressure;BME280_temperature;BME280_humidity;BME280_pressure;Samples;Min_cycle;Max_cycle;Signal;HPM_P1;HPM_P2
2022/05/16 00:02:06;;;;;;;18.07;11.17;;;9.60;1.00;;;;;;10484059;28;20222;-83
2022/05/16 00:07:27;;;;;;;21.93;11.53;;;9.60;1.00;;;;;;10455569;28;20233;-84
2022/05/16 00:12:49;;;;;;;22.93;11.70;;;9.50;2.80;;;;;;10452032;28;20224;-84
2022/05/16 00:18:10;;;;;;;27.00;12.63;;;9.50;1.00;;;;;;10451057;28;20231;-84
2022/05/16 00:23:32;;;;;;;22.80;11.97;;;9.50;1.00;;;;;;10434870;28;20237;-84
2022/05/16 00:28:53;;;;;;;25.90;13.80;;;9.30;1.00;;;;;;10468741;28;20214;-84
2022/05/16 00:34:15;;;;;;;26.67;13.90;;;9.20;1.00;;;;;;10482652;28;20232;-84
2022/05/16 00:39:37;;;;;;;27.27;13.40;;;9.20;1.00;;;;;;10467881;28;20230;-84
2022/05/16 00:44:58;;;;;;;27.63;13.90;;;9.10;1.00;;;;;;10468691;28;20195;-84
2022/05/16 00:50:20;;;;;;;26.77;12.57;;;9.10;4.50;;;;;;10485672;28;20281;-84
2022/05/16 00:55:42;;;;;;;26.73;12.17;;;9.10;1.00;;;;;;10509095;28;20261;-84
2022/05/16 01:04:47;;;;;;;22.77;10.97;;;9.00;1.00;;;;;;10495125;28;20226;-84
2022/05/16 01:06:45;;;;;;;20.77;10.87;;;8.90;1.00;;;;;;10508296;28;20513;-83
2022/05/16 01:12:07;;;;;;;22.80;10.60;;;8.80;1.00;;;;;;10503936;28;20195;-83
2022/05/16 01:17:29;;;;;;;20.30;9.23;;;8.70;1.00;;;;;;10462366;28;20202;-84
2022/05/16 01:22:52;;;;;;;16.10;8.63;;;8.60;1.00;;;;;;10452398;28;20233;-83
2022/05/16 01:28:17;;;;;;;17.40;9.13;;;8.60;1.70;;;;;;10480865;28;20264;-84
2022/05/16 01:33:39;;;;;;;16.00;8.97;;;8.50;5.70;;;;;;10466077;28;20344;-83
2022/05/16 01:39:01;;;;;;;17.73;8.87;;;;;;;;;;10465786;28;20225;-84
2022/05/16 01:44:23;;;;;;;16.73;8.97;;;8.60;13.10;;;;;;10450111;28;20282;-83
2022/05/16 01:49:44;;;;;;;13.00;7.87;;;8.40;4.30;;;;;;10491557;28;20195;-84
2022/05/16 01:55:08;;;;;;;16.27;8.33;;;8.20;1.60;;;;;;10507444;28;20214;-84
2022/05/16 02:00:31;;;;;;;18.27;8.27;;;8.20;1.40;;;;;;10492396;28;20300;-84
2022/05/16 02:05:53;;;;;;;12.23;7.00;;;8.10;2.90;;;;;;10483830;28;20218;-84
2022/05/16 02:11:15;;;;;;;11.90;6.83;;;8.00;7.50;;;;;;10465012;28;20197;-83
2022/05/16 02:16:36;;;;;;;13.37;6.63;;;8.00;3.60;;;;;;10482066;28;20398;-84
2022/05/16 02:27:38;;;;;;;16.07;7.43;;;8.00;9.00;;;;;;10464188;28;20280;-84
2022/05/16 02:32:59;;;;;;;17.67;8.53;;;8.00;10.80;;;;;;10465503;28;20443;-85
2022/05/16 02:38:21;;;;;;;15.47;7.67;;;8.00;1.20;;;;;;10479740;28;20264;-85
2022/05/16 02:43:45;;;;;;;14.93;8.73;;;8.00;5.10;;;;;;10451131;28;20206;-83
2022/05/16 02:49:07;;;;;;;14.57;7.67;;;8.00;11.40;;;;;;10485034;28;20197;-83
2022/05/16 02:54:28;;;;;;;13.97;7.23;;;7.90;12.30;;;;;;10505488;28;20220;-84
2022/05/16 02:59:49;;;;;;;16.83;7.70;;;7.90;15.70;;;;;;10504906;28;20223;-83
2022/05/16 03:05:12;;;;;;;10.90;6.50;;;8.00;21.00;;;;;;10502601;28;20449;-84
2022/05/16 03:10:34;;;;;;;14.37;7.53;;;8.00;3.50;;;;;;10463362;28;20220;-84
2022/05/16 03:15:55;;;;;;;15.40;8.00;;;7.90;4.80;;;;;;10466156;28;20198;-84
2022/05/16 03:21:17;;;;;;;16.23;7.90;;;7.80;7.80;;;;;;10449550;28;20234;-84
2022/05/16 03:26:40;;;;;;;13.27;8.23;;;7.80;13.60;;;;;;10477098;28;20220;-83
2022/05/16 03:32:01;;;;;;;14.10;7.70;;;7.80;20.40;;;;;;10471211;28;20265;-84
2022/05/16 03:37:23;;;;;;;12.53;7.60;;;7.90;11.50;;;;;;10484853;28;20272;-84
2022/05/16 03:42:44;;;;;;;13.60;7.27;;;7.90;18.40;;;;;;10470882;28;20228;-84
2022/05/16 03:48:07;;;;;;;12.03;7.77;;;7.80;24.60;;;;;;10483806;28;20519;-84
2022/05/16 03:53:28;;;;;;;15.20;9.00;;;7.90;13.80;;;;;;10512319;28;20300;-84
2022/05/16 03:58:50;;;;;;;15.87;9.23;;;8.00;12.20;;;;;;10498629;28;20216;-84
2022/05/16 04:04:12;;;;;;;17.00;8.30;;;8.10;16.20;;;;;;10513310;28;20200;-84
2022/05/16 04:16:53;;;;;;;17.63;9.57;;;8.30;19.50;;;;;;10484126;28;20497;-83
2022/05/16 04:22:53;;;;;;;19.10;9.13;;;8.50;24.70;;;;;;10470097;28;20248;-85
2022/05/16 04:28:15;;;;;;;17.27;10.87;;;8.60;15.80;;;;;;10459554;28;20391;-84
2022/05/16 04:33:36;;;;;;;19.13;10.83;;;8.70;9.60;;;;;;10414688;28;20246;-86
2022/05/16 04:38:57;;;;;;;17.70;9.57;;;8.80;10.70;;;;;;10466059;28;20224;-85
2022/05/16 04:44:19;;;;;;;15.93;9.43;;;9.00;11.60;;;;;;10468999;28;20206;-87
2022/05/16 04:49:40;;;;;;;19.33;10.30;;;9.10;19.50;;;;;;10495206;28;20248;-86
2022/05/16 04:55:02;;;;;;;20.87;9.53;;;9.30;32.60;;;;;;10510157;28;20217;-86
2022/05/16 05:00:25;;;;;;;17.93;9.00;;;9.50;39.90;;;;;;10496023;28;20225;-86
2022/05/16 05:05:47;;;;;;;15.77;8.87;;;9.80;48.50;;;;;;10485168;28;20253;-86
2022/05/16 05:16:48;;;;;;;15.30;6.93;;;10.30;69.60;;;;;;10486158;28;20202;-86
2022/05/16 05:22:10;;;;;;;8.53;3.00;;;10.50;76.20;;;;;;10522362;28;20248;-88
2022/05/16 05:27:32;;;;;;;7.77;2.90;;;10.90;39.30;;;;;;10453350;28;20207;-88
2022/05/16 05:32:54;;;;;;;6.93;2.73;;;11.30;20.30;;;;;;10466293;28;20246;-87
2022/05/16 05:38:15;;;;;;;6.10;2.57;;;11.50;10.80;;;;;;10466115;28;20386;-87
2022/05/16 05:43:37;;;;;;;6.65;2.95;;;11.80;1.00;;;;;;10480668;28;20227;-87
2022/05/16 05:48:59;;;;;;;9.20;3.53;;;12.00;1.00;;;;;;10472720;28;20390;-83
2022/05/16 05:54:20;;;;;;;8.77;2.50;;;12.40;1.00;;;;;;10520530;28;20199;-87
2022/05/16 05:59:42;;;;;;;5.75;2.50;;;12.60;1.00;;;;;;10506726;28;20219;-86
2022/05/16 06:05:04;;;;;;;7.38;2.83;;;12.90;1.00;;;;;;10485077;28;21282;-87
2022/05/16 06:10:26;;;;;;;9.88;3.13;;;13.20;1.00;;;;;;10465154;28;20491;-87
2022/05/16 06:15:48;;;;;;;7.28;2.53;;;13.60;1.00;;;;;;10460407;28;20526;-86
2022/05/16 06:21:09;;;;;;;6.53;2.40;;;14.10;1.00;;;;;;10464656;28;20220;-86
2022/05/16 06:26:31;;;;;;;7.05;3.03;;;14.60;1.00;;;;;;10487729;28;20198;-84
2022/05/16 06:31:53;;;;;;;9.13;2.67;;;15.00;1.00;;;;;;10465086;28;20190;-86
2022/05/16 06:37:15;;;;;;;5.97;2.80;;;15.60;99.90;;;;;;10463977;28;20203;-84
2022/05/16 06:42:36;;;;;;;7.57;2.97;;;16.40;99.90;;;;;;10436381;28;20311;-84
2022/05/16 06:47:58;;;;;;;7.35;2.78;;;17.10;1.00;;;;;;10446823;28;20239;-85
2022/05/16 06:53:31;;;;;;;5.30;2.33;;;17.70;1.10;;;;;;10505061;28;20338;-83
2022/05/16 06:58:52;;;;;;;4.82;2.05;;;18.40;99.90;;;;;;10504497;28;20399;-85
2022/05/16 07:04:14;;;;;;;5.13;2.20;;;18.90;19.80;;;;;;10506617;28;20198;-84
2022/05/16 07:09:39;;;;;;;8.38;2.45;;;19.20;1.00;;;;;;10485105;28;20222;-85
2022/05/16 07:15:01;;;;;;;6.47;3.38;;;19.70;1.00;;;;;;10460910;28;20195;-85
2022/05/16 07:20:22;;;;;;;7.07;3.28;;;20.20;24.20;;;;;;10512539;28;20223;-86
2022/05/16 07:31:26;;;;;;;11.55;3.80;;;20.90;90.10;;;;;;10369843;28;20436;-86
2022/05/16 07:36:48;;;;;;;6.50;2.92;;;21.30;1.00;;;;;;10367924;28;20527;-85
2022/05/16 07:42:10;;;;;;;6.30;2.47;;;21.70;1.00;;;;;;10330353;28;20257;-86
2022/05/16 07:47:34;;;;;;;5.75;2.28;;;21.90;94.90;;;;;;10368718;28;20372;-85
2022/05/16 07:52:58;;;;;;;7.13;3.42;;;22.50;1.00;;;;;;10369680;28;20303;-84
2022/05/16 07:58:22;;;;;;;5.30;2.63;;;22.80;99.90;;;;;;10383208;28;20575;-83
2022/05/16 08:03:46;;;;;;;5.45;2.53;;;23.00;99.90;;;;;;10388009;28;20229;-83
2022/05/16 08:14:48;;;;;;;6.78;2.33;;;23.50;99.90;;;;;;10366012;28;20288;-85
2022/05/16 08:20:10;;;;;;;3.05;1.23;;;23.50;45.70;;;;;;10384075;28;20527;-89
2022/05/16 08:25:31;;;;;;;4.20;1.30;;;23.80;73.10;;;;;;10378611;28;20206;-85
2022/05/16 08:30:53;;;;;;;4.75;1.95;;;23.80;13.80;;;;;;10354901;28;20293;-84
2022/05/16 08:41:59;;;;;;;6.28;1.95;;;24.30;1.00;;;;;;10396944;28;20225;-87
2022/05/16 08:47:39;;;;;;;1.58;1.10;;;24.50;1.00;;;;;;10382368;28;20484;-86
2022/05/16 08:53:18;;;;;;;3.50;1.10;;;24.70;1.00;;;;;;10381312;28;20504;-86
2022/05/16 08:59:00;;;;;;;2.20;1.30;;;25.00;1.00;;;;;;10367980;28;20197;-85
2022/05/16 09:04:48;;;;;;;5.63;3.10;;;25.10;1.00;;;;;;10381294;28;20208;-84
2022/05/16 09:10:22;;;;;;;4.28;1.33;;;25.40;1.00;;;;;;10381205;28;20486;-84
2022/05/16 09:16:02;;;;;;;8.27;2.85;;;25.60;1.00;;;;;;10367318;28;20209;-87
2022/05/16 09:21:46;;;;;;;8.68;1.55;;;25.90;1.00;;;;;;10315892;28;20225;-85
2022/05/16 09:33:17;;;;;;;3.45;1.00;;;25.50;1.00;;;;;;10390953;28;20291;-84
2022/05/16 09:38:44;;;;;;;2.00;1.20;;;;;;;;;;10375808;28;20208;-83
2022/05/16 09:44:21;;;;;;;3.40;1.05;;;23.00;1.00;;;;;;10362232;28;20279;-85
2022/05/16 09:49:43;;;;;;;5.65;1.60;;;23.70;1.00;;;;;;10360749;28;20292;-84
2022/05/16 09:55:11;;;;;;;2.78;1.00;;;25.30;1.00;;;;;;10365205;28;20193;-84
2022/05/16 10:00:54;;;;;;;1.60;0.85;;;24.60;1.00;;;;;;10361028;28;20236;-83
2022/05/16 10:06:29;;;;;;;4.25;1.20;;;25.40;1.00;;;;;;10374967;28;20196;-83
2022/05/16 10:11:52;;;;;;;3.17;0.70;;;25.10;1.00;;;;;;10374672;28;20209;-92
2022/05/16 10:17:40;;;;;;;1.90;1.10;;;24.30;1.00;;;;;;10359473;28;20209;-82
2022/05/16 10:23:11;;;;;;;2.60;0.88;;;23.40;1.00;;;;;;10374775;28;20232;-83
2022/05/16 10:28:41;;;;;;;4.05;2.67;;;22.70;1.00;;;;;;10376646;28;20503;-83
2022/05/16 10:34:12;;;;;;;5.03;1.00;;;22.50;1.00;;;;;;10388003;28;20243;-84
2022/05/16 10:39:38;;;;;;;3.25;1.13;;;22.30;1.00;;;;;;10354397;28;20208;-91
2022/05/16 10:45:16;;;;;;;1.88;1.00;;;22.40;1.00;;;;;;10383848;28;20511;-85
2022/05/16 10:51:03;;;;;;;1.90;1.13;;;22.50;1.00;;;;;;10385195;28;20205;-85
2022/05/16 10:56:57;;;;;;;2.20;1.20;;;22.80;1.00;;;;;;10362897;28;20202;-86
2022/05/16 11:02:21;;;;;;;2.35;1.15;;;24.20;1.00;;;;;;10336379;28;20546;-85
2022/05/16 11:08:13;;;;;;;4.05;1.23;;;25.10;1.00;;;;;;10359579;28;20554;-85
2022/05/16 11:13:47;;;;;;;5.78;1.00;;;24.80;1.00;;;;;;10375363;28;20239;-84
2022/05/16 11:19:35;;;;;;;3.35;1.40;;;23.70;1.00;;;;;;10376091;28;20398;-86
2022/05/16 11:25:16;;;;;;;3.13;1.45;;;22.80;1.00;;;;;;10331861;28;20252;-84
2022/05/16 11:30:52;;;;;;;3.22;1.58;;;22.30;1.00;;;;;;10329665;28;20217;-88
2022/05/16 11:36:22;;;;;;;3.53;1.55;;;22.20;1.00;;;;;;10356634;28;20221;-85
2022/05/16 11:42:12;;;;;;;5.07;1.70;;;22.10;1.00;;;;;;10357702;28;20229;-88
2022/05/16 11:47:57;;;;;;;2.67;1.60;;;23.10;1.00;;;;;;10341538;28;20285;-85
2022/05/16 11:53:57;;;;;;;6.72;1.20;;;24.20;1.00;;;;;;10367279;28;20205;-85
2022/05/16 12:05:31;;;;;;;5.65;1.63;;;23.10;1.00;;;;;;10403388;28;20224;-82
2022/05/16 12:11:02;;;;;;;3.78;1.25;;;23.20;1.00;;;;;;10381999;28;20303;-84
2022/05/16 12:16:35;;;;;;;4.90;1.35;;;24.20;1.00;;;;;;10383944;28;20205;-81
2022/05/16 12:22:10;;;;;;;2.25;1.13;;;24.50;1.00;;;;;;10383168;28;20385;-87
2022/05/16 12:27:40;;;;;;;2.33;1.10;;;23.90;1.00;;;;;;10373404;28;20216;-85
2022/05/16 12:33:02;;;;;;;4.82;0.90;;;23.50;1.00;;;;;;10353100;28;20259;-85
2022/05/16 12:38:27;;;;;;;1.67;1.02;;;23.20;1.00;;;;;;10394715;28;20193;-86
2022/05/16 12:44:25;;;;;;;2.53;1.00;;;22.80;1.00;;;;;;10381313;28;20233;-87
2022/05/16 12:50:16;;;;;;;4.20;1.08;;;23.20;1.00;;;;;;10381375;28;20201;-84
2022/05/16 12:55:59;;;;;;;4.07;1.05;;;23.40;1.00;;;;;;10329147;28;20224;-92
2022/05/16 13:01:58;;;;;;;2.90;1.20;;;23.60;1.00;;;;;;10321658;28;20261;-87
2022/05/16 13:07:42;;;;;;;2.05;0.95;;;23.20;1.00;;;;;;10332243;28;20214;-89
2022/05/16 13:13:19;;;;;;;6.63;1.95;;;23.30;1.00;;;;;;10336263;28;20316;-88
2022/05/16 13:18:51;;;;;;;5.82;1.17;;;23.60;1.00;;;;;;10328812;28;20228;-85
2022/05/16 13:24:15;;;;;;;5.05;1.00;;;23.20;1.00;;;;;;10332935;28;20260;-83
2022/05/16 13:29:38;;;;;;;2.30;1.38;;;22.70;1.00;;;;;;10323801;28;20295;-85
2022/05/16 13:35:07;;;;;;;1.83;1.02;;;22.50;1.00;;;;;;10365157;28;20306;-85
2022/05/16 13:40:55;;;;;;;3.40;1.00;;;22.20;1.00;;;;;;10377452;28;20225;-83
2022/05/16 13:46:16;;;;;;;2.63;1.00;;;21.90;1.00;;;;;;10393173;28;20219;-83
2022/05/16 13:51:45;;;;;;;1.55;0.85;;;21.90;1.00;;;;;;10365143;28;20201;-83
2022/05/16 13:57:08;;;;;;;1.85;0.90;;;22.40;1.00;;;;;;10363939;28;20399;-82
2022/05/16 14:02:29;;;;;;;4.82;1.10;;;22.80;1.00;;;;;;10378043;28;20220;-83
2022/05/16 14:07:51;;;;;;;0.60;0.60;;;23.00;1.00;;;;;;10376907;28;20267;-88
2022/05/16 14:13:17;;;;;;;1.80;0.90;;;23.10;1.00;;;;;;10376089;28;20226;-83
2022/05/16 14:18:44;;;;;;;1.65;0.93;;;22.90;1.00;;;;;;10350870;28;20276;-82
2022/05/16 14:24:10;;;;;;;1.30;0.70;;;22.90;1.00;;;;;;10360071;28;20232;-85
2022/05/16 14:29:32;;;;;;;1.70;0.80;;;22.90;1.00;;;;;;10351284;28;20280;-85
2022/05/16 14:35:10;;;;;;;2.88;1.02;;;22.90;1.00;;;;;;10377162;28;20240;-87
2022/05/16 14:40:38;;;;;;;4.70;1.17;;;22.50;1.00;;;;;;10393303;28;20581;-84
2022/05/16 14:51:49;;;;;;;3.78;0.88;;;22.20;1.00;;;;;;10381172;28;20201;-86
2022/05/16 14:57:10;;;;;;;1.48;1.00;;;22.40;1.00;;;;;;10391811;28;20221;-84
2022/05/16 15:08:20;;;;;;;1.50;0.93;;;22.30;1.00;;;;;;10400403;28;20316;-87
2022/05/16 15:13:42;;;;;;;6.35;1.75;;;22.20;1.00;;;;;;10371756;28;20216;-88
2022/05/16 15:19:04;;;;;;;4.75;1.95;;;22.10;1.00;;;;;;10356764;28;20220;-87
2022/05/16 15:24:34;;;;;;;7.72;2.70;;;21.70;1.00;;;;;;10392565;28;20240;-84
2022/05/16 15:30:06;;;;;;;4.68;1.70;;;21.40;1.00;;;;;;10392390;28;20204;-86
2022/05/16 15:35:27;;;;;;;2.17;1.33;;;21.20;1.00;;;;;;10399484;28;20233;-85
2022/05/16 15:40:51;;;;;;;3.00;1.55;;;21.00;1.00;;;;;;10398174;28;20217;-84
2022/05/16 15:46:13;;;;;;;8.35;2.20;;;20.90;1.00;;;;;;10371182;28;20208;-85
2022/05/16 15:51:35;;;;;;;2.22;1.30;;;20.80;1.00;;;;;;10371972;28;20271;-88
2022/05/16 15:56:57;;;;;;;2.53;1.40;;;20.70;1.00;;;;;;10383527;28;20193;-83
2022/05/16 16:02:21;;;;;;;1.48;0.95;;;20.70;1.00;;;;;;10382339;28;20232;-86
2022/05/16 16:13:26;;;;;;;8.95;3.65;;;20.40;1.00;;;;;;10384940;28;20504;-87
2022/05/16 16:18:49;;;;;;;4.43;3.33;;;20.00;1.00;;;;;;10368378;28;20193;-84
2022/05/16 16:24:11;;;;;;;2.15;1.40;;;19.80;1.00;;;;;;10357618;28;20265;-86
2022/05/16 16:29:32;;;;;;;2.88;1.95;;;19.50;1.00;;;;;;10344026;28;20260;-86
2022/05/16 16:34:53;;;;;;;2.83;2.08;;;19.30;1.00;;;;;;10357750;28;20252;-86
2022/05/16 16:40:15;;;;;;;1.58;1.30;;;19.10;1.00;;;;;;10398003;28;20205;-85
2022/05/16 16:45:37;;;;;;;1.75;1.08;;;19.10;1.00;;;;;;10383362;28;20198;-85
2022/05/16 16:50:59;;;;;;;1.73;0.98;;;19.00;1.00;;;;;;10383156;28;20519;-84
2022/05/16 17:02:01;;;;;;;1.33;0.82;;;18.80;1.00;;;;;;10382172;28;20237;-84
2022/05/16 17:07:27;;;;;;;2.92;1.40;;;18.60;1.00;;;;;;10395833;28;20193;-85
2022/05/16 17:12:48;;;;;;;3.03;1.35;;;18.50;1.00;;;;;;10382049;28;20209;-85
2022/05/16 17:18:10;;;;;;;5.85;4.68;;;18.40;1.00;;;;;;10395791;28;20268;-85
2022/05/16 17:23:34;;;;;;;4.40;2.17;;;18.20;1.00;;;;;;10367635;28;20236;-86
2022/05/16 17:28:55;;;;;;;4.40;1.88;;;18.10;1.00;;;;;;10368043;28;20559;-85
2022/05/16 17:34:17;;;;;;;4.78;1.70;;;18.00;1.00;;;;;;10368048;28;20295;-85
2022/05/16 17:39:38;;;;;;;2.85;1.80;;;17.90;1.00;;;;;;10381951;28;20204;-85
2022/05/16 17:45:00;;;;;;;3.83;1.50;;;17.70;1.00;;;;;;10396574;28;20570;-85
2022/05/16 17:50:22;;;;;;;2.88;1.65;;;17.60;1.00;;;;;;10353619;28;20229;-84
2022/05/16 17:55:44;;;;;;;2.78;1.67;;;17.40;1.00;;;;;;10367383;28;20279;-85
2022/05/16 18:01:05;;;;;;;3.80;2.08;;;17.30;1.00;;;;;;10379891;28;20231;-84
2022/05/16 18:06:27;;;;;;;4.82;1.80;;;17.10;1.00;;;;;;10366311;28;20205;-84
2022/05/16 18:17:29;;;;;;;2.92;1.80;;;16.80;1.00;;;;;;10393787;28;20510;-83
2022/05/16 18:22:53;;;;;;;6.70;2.13;;;16.60;1.00;;;;;;10365285;28;20217;-84
2022/05/16 18:28:15;;;;;;;8.70;3.05;;;16.50;1.00;;;;;;10366351;28;20193;-84
2022/05/16 18:33:37;;;;;;;6.25;3.22;;;16.20;1.00;;;;;;10365870;28;20240;-84
2022/05/16 18:39:00;;;;;;;6.38;2.83;;;16.10;1.00;;;;;;10379958;28;20211;-85
2022/05/16 18:55:46;;;;;;;3.92;2.65;;;15.60;1.00;;;;;;10379446;28;20206;-85
2022/05/16 19:01:11;;;;;;;6.43;3.20;;;15.40;1.00;;;;;;10364953;28;20230;-84
2022/05/16 19:06:33;;;;;;;4.18;2.42;;;15.20;1.00;;;;;;10345906;28;20197;-83
2022/05/16 19:11:55;;;;;;;4.45;2.70;;;15.10;1.00;;;;;;10378631;28;20203;-83
2022/05/16 19:17:16;;;;;;;4.97;2.65;;;14.90;1.00;;;;;;10364957;28;20218;-83
2022/05/16 19:22:38;;;;;;;4.82;2.10;;;14.70;1.00;;;;;;10378196;28;20525;-84
2022/05/16 19:33:45;;;;;;;2.30;1.65;;;14.40;1.00;;;;;;10377942;28;20238;-85
2022/05/16 19:39:06;;;;;;;6.75;2.80;;;14.20;1.00;;;;;;10378603;28;20192;-84
2022/05/16 19:44:27;;;;;;;6.35;3.45;;;14.20;1.00;;;;;;10391389;28;20242;-84
2022/05/16 19:49:49;;;;;;;6.32;2.90;;;14.10;1.00;;;;;;10391486;28;20201;-85
2022/05/16 19:55:10;;;;;;;3.72;2.42;;;14.00;1.00;;;;;;10377728;28;20207;-84
2022/05/16 20:00:33;;;;;;;4.10;2.92;;;13.90;36.90;;;;;;10377193;28;20277;-83
2022/05/16 20:05:54;;;;;;;6.13;3.35;;;13.80;99.90;;;;;;10377840;28;20234;-84
2022/05/16 20:11:15;;;;;;;5.53;3.05;;;13.60;99.90;;;;;;10339390;28;20230;-85
2022/05/16 20:16:37;;;;;;;4.45;2.70;;;13.40;1.00;;;;;;10351090;28;20218;-83
2022/05/16 20:27:39;;;;;;;10.15;4.45;;;13.10;99.90;;;;;;10383697;28;20215;-85
2022/05/16 20:33:01;;;;;;;7.90;4.40;;;12.80;1.00;;;;;;10369717;28;20320;-83
2022/05/16 20:38:24;;;;;;;10.52;4.38;;;12.80;33.90;;;;;;10384702;28;20426;-85
2022/05/16 20:43:46;;;;;;;8.32;4.78;;;12.70;99.90;;;;;;10383168;28;20254;-84
2022/05/16 20:49:09;;;;;;;10.32;5.32;;;12.60;1.00;;;;;;10369634;28;20248;-83
2022/05/16 20:54:31;;;;;;;6.93;4.28;;;12.50;1.00;;;;;;10383241;28;20230;-85
2022/05/16 20:59:52;;;;;;;9.32;4.85;;;12.30;99.90;;;;;;10383002;28;20237;-85
2022/05/16 21:05:15;;;;;;;21.48;10.57;;;12.30;99.90;;;;;;10369003;28;20228;-84
2022/05/16 21:10:36;;;;;;;17.33;8.88;;;12.40;99.90;;;;;;10358039;28;20199;-85
2022/05/16 21:15:58;;;;;;;15.70;7.70;;;12.30;26.90;;;;;;10346124;28;20227;-84
2022/05/16 21:21:21;;;;;;;9.10;3.97;;;12.30;1.00;;;;;;10381229;28;20218;-83
2022/05/16 21:26:42;;;;;;;8.27;3.50;;;12.20;1.00;;;;;;10395294;28;20197;-84
2022/05/16 21:32:06;;;;;;;9.07;5.13;;;12.10;99.90;;;;;;10367897;28;20291;-86
2022/05/16 21:37:28;;;;;;;11.77;6.43;;;12.10;1.00;;;;;;10382373;28;20199;-84
2022/05/16 21:42:51;;;;;;;11.57;5.93;;;12.10;1.00;;;;;;10367100;28;20232;-84
2022/05/16 21:48:13;;;;;;;11.93;5.88;;;12.10;99.90;;;;;;10379930;28;20439;-83
2022/05/16 21:53:35;;;;;;;7.82;3.42;;;11.90;1.00;;;;;;10393960;28;20265;-83
2022/05/16 21:59:00;;;;;;;6.68;3.20;;;11.70;1.00;;;;;;10381049;28;20196;-81
2022/05/16 22:04:21;;;;;;;11.13;5.60;;;11.70;1.00;;;;;;10394020;28;20235;-83
2022/05/16 22:09:43;;;;;;;6.97;4.65;;;11.70;1.00;;;;;;10393047;28;20275;-81
2022/05/16 22:15:06;;;;;;;7.53;3.38;;;11.60;1.00;;;;;;10380879;28;20212;-81
2022/05/16 22:20:27;;;;;;;6.47;3.90;;;11.50;1.00;;;;;;10365416;28;20196;-83
2022/05/16 22:25:49;;;;;;;6.07;4.03;;;11.40;1.00;;;;;;10365766;28;20617;-84
2022/05/16 22:31:11;;;;;;;5.43;3.30;;;11.40;1.00;;;;;;10379730;28;20200;-84
2022/05/16 22:36:33;;;;;;;4.22;2.45;;;11.30;1.00;;;;;;10365430;28;20593;-83
2022/05/16 22:41:54;;;;;;;3.00;2.10;;;11.30;99.90;;;;;;10365450;28;20566;-83
2022/05/16 22:47:16;;;;;;;4.35;2.17;;;11.30;1.00;;;;;;10390851;28;20251;-84
2022/05/16 22:52:37;;;;;;;5.57;2.00;;;11.10;99.90;;;;;;10365612;28;20204;-83
2022/05/16 22:57:59;;;;;;;4.47;1.98;;;11.10;1.00;;;;;;10365744;28;20197;-83
2022/05/16 23:03:33;;;;;;;4.55;1.80;;;11.00;1.00;;;;;;10378478;28;20232;-84
2022/05/16 23:08:54;;;;;;;3.38;1.52;;;11.00;1.00;;;;;;10364560;28;20202;-84
2022/05/16 23:14:16;;;;;;;2.22;1.35;;;11.00;1.00;;;;;;10379260;28;20208;-83
2022/05/16 23:19:38;;;;;;;5.28;1.38;;;11.00;1.00;;;;;;10392302;28;20192;-84
2022/05/16 23:24:59;;;;;;;3.73;1.63;;;10.90;8.20;;;;;;10364911;28;20230;-84
2022/05/16 23:30:22;;;;;;;2.78;1.58;;;11.00;1.00;;;;;;10378663;28;20291;-84
2022/05/16 23:36:12;;;;;;;4.80;2.10;;;10.90;63.00;;;;;;10378797;28;20225;-85
2022/05/16 23:41:24;;;;;;;4.05;1.85;;;11.00;1.00;;;;;;10377706;28;20229;-81
2022/05/16 23:46:46;;;;;;;5.22;2.10;;;11.00;1.00;;;;;;10396015;28;20202;-81
2022/05/16 23:52:09;;;;;;;4.47;2.28;;;11.00;1.00;;;;;;10398678;28;20205;-82
2022/05/16 23:57:31;;;;;;;6.68;2.40;;;11.10;1.00;;;;;;10385658;28;20208;-81
